Piney Woods, Mississippi
Current Conditions -  °F | °C
As of 8:54 PM on Monday 26 Jan 2015 (Local Time) from KJAN Reporting Station
Clear Clear  
Wind Chill: 42°   Ceiling: Unl
Heat Index: 44°   Visibility: 10mi
Dew Point: 33°   Wind: 5mph
Humidity: 65%   Direction: 210°SSW
Pressure: 30.04"   Gusts: NA
Location:  32.06°N, 89.99°W
Report Text: KJAN 270254Z 21004KT 10SM CLR 07/01 A3004 RMK AO2 SLP172 T00670006 55001
Loading
Personal Weather Stations






























Interactive Weather Map New forecast layout! Learn more

10-Day Weather Forecast

Advertisements
Track Severe Weather on mobile